sensor_id;sensor_type;location;lat;lon;timestamp;temperature;humidity
16412;DHT22;8315;52.104;6.304;2022-08-25T00:01:34;23.60;96.50
16412;DHT22;8315;52.104;6.304;2022-08-25T00:04:03;23.50;96.10
16412;DHT22;8315;52.104;6.304;2022-08-25T00:06:31;23.60;96.10
16412;DHT22;8315;52.104;6.304;2022-08-25T00:08:59;23.60;96.10
16412;DHT22;8315;52.104;6.304;2022-08-25T00:11:27;23.60;95.90
16412;DHT22;8315;52.104;6.304;2022-08-25T00:13:57;23.60;95.50
16412;DHT22;8315;52.104;6.304;2022-08-25T00:16:26;23.50;96.00
16412;DHT22;8315;52.104;6.304;2022-08-25T00:18:56;23.40;95.40
16412;DHT22;8315;52.104;6.304;2022-08-25T00:21:26;23.30;96.50
16412;DHT22;8315;52.104;6.304;2022-08-25T00:23:53;23.30;96.30
16412;DHT22;8315;52.104;6.304;2022-08-25T00:26:21;23.30;96.20
16412;DHT22;8315;52.104;6.304;2022-08-25T00:28:48;23.20;95.50
16412;DHT22;8315;52.104;6.304;2022-08-25T00:31:16;23.20;95.00
16412;DHT22;8315;52.104;6.304;2022-08-25T00:33:45;23.40;94.80
16412;DHT22;8315;52.104;6.304;2022-08-25T00:36:13;23.40;95.00
16412;DHT22;8315;52.104;6.304;2022-08-25T00:38:40;23.30;95.00
16412;DHT22;8315;52.104;6.304;2022-08-25T00:41:08;23.40;94.70
16412;DHT22;8315;52.104;6.304;2022-08-25T00:43:43;23.30;94.70
16412;DHT22;8315;52.104;6.304;2022-08-25T00:46:12;23.30;94.20
16412;DHT22;8315;52.104;6.304;2022-08-25T00:48:40;23.30;94.80
16412;DHT22;8315;52.104;6.304;2022-08-25T00:51:10;23.30;94.40
16412;DHT22;8315;52.104;6.304;2022-08-25T00:53:39;23.20;94.80
16412;DHT22;8315;52.104;6.304;2022-08-25T00:56:06;23.10;94.70
16412;DHT22;8315;52.104;6.304;2022-08-25T00:58:33;23.10;94.60
16412;DHT22;8315;52.104;6.304;2022-08-25T01:01:01;23.10;94.40
16412;DHT22;8315;52.104;6.304;2022-08-25T01:03:29;23.10;94.30
16412;DHT22;8315;52.104;6.304;2022-08-25T01:05:58;23.00;94.70
16412;DHT22;8315;52.104;6.304;2022-08-25T01:08:26;23.00;94.90
16412;DHT22;8315;52.104;6.304;2022-08-25T01:10:54;22.90;94.60
16412;DHT22;8315;52.104;6.304;2022-08-25T01:13:36;22.90;94.40
16412;DHT22;8315;52.104;6.304;2022-08-25T01:16:07;22.90;94.60
16412;DHT22;8315;52.104;6.304;2022-08-25T01:18:47;22.80;94.70
16412;DHT22;8315;52.104;6.304;2022-08-25T01:21:17;22.80;94.60
16412;DHT22;8315;52.104;6.304;2022-08-25T01:23:45;22.70;95.00
16412;DHT22;8315;52.104;6.304;2022-08-25T01:26:13;22.70;95.00
16412;DHT22;8315;52.104;6.304;2022-08-25T01:28:42;22.70;94.70
16412;DHT22;8315;52.104;6.304;2022-08-25T01:31:24;22.70;95.00
16412;DHT22;8315;52.104;6.304;2022-08-25T01:33:51;22.60;94.80
16412;DHT22;8315;52.104;6.304;2022-08-25T01:36:19;22.60;95.40
16412;DHT22;8315;52.104;6.304;2022-08-25T01:38:46;22.50;95.00
16412;DHT22;8315;52.104;6.304;2022-08-25T01:41:14;22.50;94.60
16412;DHT22;8315;52.104;6.304;2022-08-25T01:43:42;22.60;93.10
16412;DHT22;8315;52.104;6.304;2022-08-25T01:46:09;22.60;94.70
16412;DHT22;8315;52.104;6.304;2022-08-25T01:48:37;22.60;94.60
16412;DHT22;8315;52.104;6.304;2022-08-25T01:51:04;22.60;92.60
16412;DHT22;8315;52.104;6.304;2022-08-25T01:53:32;22.40;92.80
16412;DHT22;8315;52.104;6.304;2022-08-25T01:55:59;22.50;92.60
16412;DHT22;8315;52.104;6.304;2022-08-25T01:58:36;22.50;92.10
16412;DHT22;8315;52.104;6.304;2022-08-25T02:01:05;22.50;91.80
16412;DHT22;8315;52.104;6.304;2022-08-25T02:03:35;22.60;92.20
16412;DHT22;8315;52.104;6.304;2022-08-25T02:06:04;22.60;91.60
16412;DHT22;8315;52.104;6.304;2022-08-25T02:08:33;22.60;91.20
16412;DHT22;8315;52.104;6.304;2022-08-25T02:11:00;22.60;90.80
16412;DHT22;8315;52.104;6.304;2022-08-25T02:13:27;22.70;90.60
16412;DHT22;8315;52.104;6.304;2022-08-25T02:15:55;22.70;90.20
16412;DHT22;8315;52.104;6.304;2022-08-25T02:18:23;22.70;90.40
16412;DHT22;8315;52.104;6.304;2022-08-25T02:20:50;22.70;90.10
16412;DHT22;8315;52.104;6.304;2022-08-25T02:23:17;22.60;90.00
16412;DHT22;8315;52.104;6.304;2022-08-25T02:25:45;22.60;89.90
16412;DHT22;8315;52.104;6.304;2022-08-25T02:28:12;22.60;89.70
16412;DHT22;8315;52.104;6.304;2022-08-25T02:30:39;22.70;89.60
16412;DHT22;8315;52.104;6.304;2022-08-25T02:33:07;22.70;89.50
16412;DHT22;8315;52.104;6.304;2022-08-25T02:35:35;22.70;89.80
16412;DHT22;8315;52.104;6.304;2022-08-25T02:38:02;22.70;89.30
16412;DHT22;8315;52.104;6.304;2022-08-25T02:40:29;22.60;89.30
16412;DHT22;8315;52.104;6.304;2022-08-25T02:42:57;22.60;89.50
16412;DHT22;8315;52.104;6.304;2022-08-25T02:45:24;22.60;89.40
16412;DHT22;8315;52.104;6.304;2022-08-25T02:47:51;22.60;89.30
16412;DHT22;8315;52.104;6.304;2022-08-25T02:50:19;22.60;89.30
16412;DHT22;8315;52.104;6.304;2022-08-25T02:52:46;22.60;89.10
16412;DHT22;8315;52.104;6.304;2022-08-25T02:55:15;22.60;89.00
16412;DHT22;8315;52.104;6.304;2022-08-25T02:57:42;22.60;89.00
16412;DHT22;8315;52.104;6.304;2022-08-25T03:00:11;22.60;88.90
16412;DHT22;8315;52.104;6.304;2022-08-25T03:02:39;22.30;89.50
16412;DHT22;8315;52.104;6.304;2022-08-25T03:05:07;22.30;89.60
16412;DHT22;8315;52.104;6.304;2022-08-25T03:07:35;22.30;89.70
16412;DHT22;8315;52.104;6.304;2022-08-25T03:10:04;22.30;89.60
16412;DHT22;8315;52.104;6.304;2022-08-25T03:12:32;22.30;89.50
16412;DHT22;8315;52.104;6.304;2022-08-25T03:14:59;22.30;89.40
16412;DHT22;8315;52.104;6.304;2022-08-25T03:17:27;22.20;89.70
16412;DHT22;8315;52.104;6.304;2022-08-25T03:19:54;22.20;89.70
16412;DHT22;8315;52.104;6.304;2022-08-25T03:22:21;22.10;89.90
16412;DHT22;8315;52.104;6.304;2022-08-25T03:24:48;22.10;90.10
16412;DHT22;8315;52.104;6.304;2022-08-25T03:27:15;22.00;90.20
16412;DHT22;8315;52.104;6.304;2022-08-25T03:29:40;21.90;90.50
16412;DHT22;8315;52.104;6.304;2022-08-25T03:32:08;22.00;90.30
16412;DHT22;8315;52.104;6.304;2022-08-25T03:34:36;21.90;90.40
16412;DHT22;8315;52.104;6.304;2022-08-25T03:37:03;21.90;90.60
16412;DHT22;8315;52.104;6.304;2022-08-25T03:39:32;21.80;90.90
16412;DHT22;8315;52.104;6.304;2022-08-25T03:42:01;21.80;90.60
16412;DHT22;8315;52.104;6.304;2022-08-25T03:44:28;21.90;90.60
16412;DHT22;8315;52.104;6.304;2022-08-25T03:46:55;21.80;90.60
16412;DHT22;8315;52.104;6.304;2022-08-25T03:49:22;21.80;90.60
16412;DHT22;8315;52.104;6.304;2022-08-25T03:51:51;21.80;90.50
16412;DHT22;8315;52.104;6.304;2022-08-25T03:54:20;21.80;90.60
16412;DHT22;8315;52.104;6.304;2022-08-25T03:56:47;21.80;90.60
16412;DHT22;8315;52.104;6.304;2022-08-25T03:59:14;21.70;90.60
16412;DHT22;8315;52.104;6.304;2022-08-25T04:01:42;21.60;91.00
16412;DHT22;8315;52.104;6.304;2022-08-25T04:04:10;21.60;91.00
16412;DHT22;8315;52.104;6.304;2022-08-25T04:06:39;21.60;91.10
16412;DHT22;8315;52.104;6.304;2022-08-25T04:09:09;21.60;91.30
16412;DHT22;8315;52.104;6.304;2022-08-25T04:11:36;21.60;91.30
16412;DHT22;8315;52.104;6.304;2022-08-25T04:14:03;21.50;91.40
16412;DHT22;8315;52.104;6.304;2022-08-25T04:16:31;21.30;91.70
16412;DHT22;8315;52.104;6.304;2022-08-25T04:19:00;21.40;91.50
16412;DHT22;8315;52.104;6.304;2022-08-25T04:21:28;21.30;91.90
16412;DHT22;8315;52.104;6.304;2022-08-25T04:23:56;21.30;91.90
16412;DHT22;8315;52.104;6.304;2022-08-25T04:26:25;21.30;91.90
16412;DHT22;8315;52.104;6.304;2022-08-25T04:28:53;21.20;92.10
16412;DHT22;8315;52.104;6.304;2022-08-25T04:31:20;21.20;92.10
16412;DHT22;8315;52.104;6.304;2022-08-25T04:33:47;21.30;92.10
16412;DHT22;8315;52.104;6.304;2022-08-25T04:36:14;21.30;91.80
16412;DHT22;8315;52.104;6.304;2022-08-25T04:38:42;21.30;91.80
16412;DHT22;8315;52.104;6.304;2022-08-25T04:41:10;21.30;91.80
16412;DHT22;8315;52.104;6.304;2022-08-25T04:43:40;21.20;92.00
16412;DHT22;8315;52.104;6.304;2022-08-25T04:46:08;21.30;91.70
16412;DHT22;8315;52.104;6.304;2022-08-25T04:48:37;21.40;91.50
16412;DHT22;8315;52.104;6.304;2022-08-25T04:51:04;21.40;91.30
16412;DHT22;8315;52.104;6.304;2022-08-25T04:53:32;21.50;91.00
16412;DHT22;8315;52.104;6.304;2022-08-25T04:56:00;21.50;90.80
16412;DHT22;8315;52.104;6.304;2022-08-25T04:58:27;21.50;90.80
16412;DHT22;8315;52.104;6.304;2022-08-25T05:01:01;21.40;91.10
16412;DHT22;8315;52.104;6.304;2022-08-25T05:03:29;21.30;91.40
16412;DHT22;8315;52.104;6.304;2022-08-25T05:05:56;21.20;91.60
16412;DHT22;8315;52.104;6.304;2022-08-25T05:08:23;21.20;91.90
16412;DHT22;8315;52.104;6.304;2022-08-25T05:10:50;21.10;92.40
16412;DHT22;8315;52.104;6.304;2022-08-25T05:13:19;20.90;92.90
16412;DHT22;8315;52.104;6.304;2022-08-25T05:15:50;21.00;92.70
16412;DHT22;8315;52.104;6.304;2022-08-25T05:18:21;21.00;92.80
16412;DHT22;8315;52.104;6.304;2022-08-25T05:20:49;21.00;93.00
16412;DHT22;8315;52.104;6.304;2022-08-25T05:23:18;21.00;93.00
16412;DHT22;8315;52.104;6.304;2022-08-25T05:25:45;21.00;93.00
16412;DHT22;8315;52.104;6.304;2022-08-25T05:28:12;21.10;92.70
16412;DHT22;8315;52.104;6.304;2022-08-25T05:30:40;21.00;92.90
16412;DHT22;8315;52.104;6.304;2022-08-25T05:33:07;21.00;93.00
16412;DHT22;8315;52.104;6.304;2022-08-25T05:35:36;21.00;93.20
16412;DHT22;8315;52.104;6.304;2022-08-25T05:38:03;21.10;93.00
16412;DHT22;8315;52.104;6.304;2022-08-25T05:40:30;21.20;92.80
16412;DHT22;8315;52.104;6.304;2022-08-25T05:42:57;21.10;93.00
16412;DHT22;8315;52.104;6.304;2022-08-25T05:45:24;21.20;93.20
16412;DHT22;8315;52.104;6.304;2022-08-25T05:47:51;21.30;92.80
16412;DHT22;8315;52.104;6.304;2022-08-25T05:50:18;21.30;92.60
16412;DHT22;8315;52.104;6.304;2022-08-25T05:52:46;21.40;92.50
16412;DHT22;8315;52.104;6.304;2022-08-25T05:55:13;21.50;92.40
16412;DHT22;8315;52.104;6.304;2022-08-25T05:57:40;21.60;92.30
16412;DHT22;8315;52.104;6.304;2022-08-25T06:00:08;21.60;92.30
16412;DHT22;8315;52.104;6.304;2022-08-25T06:02:38;21.70;92.10
16412;DHT22;8315;52.104;6.304;2022-08-25T06:05:09;21.70;91.90
16412;DHT22;8315;52.104;6.304;2022-08-25T06:07:38;21.80;91.90
16412;DHT22;8315;52.104;6.304;2022-08-25T06:10:07;21.90;91.90
16412;DHT22;8315;52.104;6.304;2022-08-25T06:12:36;22.00;91.70
16412;DHT22;8315;52.104;6.304;2022-08-25T06:15:03;22.00;91.80
16412;DHT22;8315;52.104;6.304;2022-08-25T06:17:31;22.10;91.80
16412;DHT22;8315;52.104;6.304;2022-08-25T06:19:59;22.10;91.20
16412;DHT22;8315;52.104;6.304;2022-08-25T06:22:26;22.30;91.40
16412;DHT22;8315;52.104;6.304;2022-08-25T06:24:53;22.30;91.60
16412;DHT22;8315;52.104;6.304;2022-08-25T06:27:21;22.40;91.20
16412;DHT22;8315;52.104;6.304;2022-08-25T06:29:48;22.50;90.70
16412;DHT22;8315;52.104;6.304;2022-08-25T06:32:15;22.50;90.80
16412;DHT22;8315;52.104;6.304;2022-08-25T06:34:41;22.60;90.70
16412;DHT22;8315;52.104;6.304;2022-08-25T06:37:08;22.70;90.30
16412;DHT22;8315;52.104;6.304;2022-08-25T06:39:35;22.80;91.00
16412;DHT22;8315;52.104;6.304;2022-08-25T06:42:02;22.80;90.80
16412;DHT22;8315;52.104;6.304;2022-08-25T06:44:30;22.80;90.70
16412;DHT22;8315;52.104;6.304;2022-08-25T06:46:57;22.90;90.10
16412;DHT22;8315;52.104;6.304;2022-08-25T06:49:24;22.90;90.00
16412;DHT22;8315;52.104;6.304;2022-08-25T06:51:52;23.00;90.00
16412;DHT22;8315;52.104;6.304;2022-08-25T06:54:19;23.10;90.30
16412;DHT22;8315;52.104;6.304;2022-08-25T06:56:46;23.20;90.00
16412;DHT22;8315;52.104;6.304;2022-08-25T06:59:13;23.30;89.40
16412;DHT22;8315;52.104;6.304;2022-08-25T07:01:41;23.40;89.30
16412;DHT22;8315;52.104;6.304;2022-08-25T07:04:08;23.40;88.50
16412;DHT22;8315;52.104;6.304;2022-08-25T07:06:35;23.40;88.60
16412;DHT22;8315;52.104;6.304;2022-08-25T07:09:02;23.50;88.80
16412;DHT22;8315;52.104;6.304;2022-08-25T07:11:30;23.60;88.70
16412;DHT22;8315;52.104;6.304;2022-08-25T07:13:59;23.70;88.20
16412;DHT22;8315;52.104;6.304;2022-08-25T07:16:26;23.80;88.50
16412;DHT22;8315;52.104;6.304;2022-08-25T07:18:55;23.80;88.00
16412;DHT22;8315;52.104;6.304;2022-08-25T07:21:22;24.00;88.00
16412;DHT22;8315;52.104;6.304;2022-08-25T07:23:49;24.20;88.20
16412;DHT22;8315;52.104;6.304;2022-08-25T07:26:16;24.30;87.70
16412;DHT22;8315;52.104;6.304;2022-08-25T07:28:44;24.30;87.50
16412;DHT22;8315;52.104;6.304;2022-08-25T07:31:11;24.40;87.20
16412;DHT22;8315;52.104;6.304;2022-08-25T07:33:38;24.50;87.00
16412;DHT22;8315;52.104;6.304;2022-08-25T07:36:27;24.70;86.90
16412;DHT22;8315;52.104;6.304;2022-08-25T07:38:52;24.80;87.30
16412;DHT22;8315;52.104;6.304;2022-08-25T07:41:19;24.90;86.80
16412;DHT22;8315;52.104;6.304;2022-08-25T07:43:46;24.90;86.20
16412;DHT22;8315;52.104;6.304;2022-08-25T07:46:13;25.00;86.40
16412;DHT22;8315;52.104;6.304;2022-08-25T07:48:40;25.10;85.80
16412;DHT22;8315;52.104;6.304;2022-08-25T07:51:07;25.20;86.20
16412;DHT22;8315;52.104;6.304;2022-08-25T07:53:36;25.30;85.40
16412;DHT22;8315;52.104;6.304;2022-08-25T07:56:07;25.40;85.30
16412;DHT22;8315;52.104;6.304;2022-08-25T07:58:35;25.50;85.60
16412;DHT22;8315;52.104;6.304;2022-08-25T08:01:03;25.60;85.20
16412;DHT22;8315;52.104;6.304;2022-08-25T08:03:30;25.80;84.90
16412;DHT22;8315;52.104;6.304;2022-08-25T08:05:58;25.90;83.80
16412;DHT22;8315;52.104;6.304;2022-08-25T08:08:25;25.90;83.70
16412;DHT22;8315;52.104;6.304;2022-08-25T08:10:53;26.00;84.00
16412;DHT22;8315;52.104;6.304;2022-08-25T08:13:21;26.10;83.40
16412;DHT22;8315;52.104;6.304;2022-08-25T08:15:50;26.30;84.10
16412;DHT22;8315;52.104;6.304;2022-08-25T08:18:17;26.40;82.60
16412;DHT22;8315;52.104;6.304;2022-08-25T08:20:45;26.50;81.70
16412;DHT22;8315;52.104;6.304;2022-08-25T08:23:13;26.60;81.80
16412;DHT22;8315;52.104;6.304;2022-08-25T08:25:40;26.70;81.70
16412;DHT22;8315;52.104;6.304;2022-08-25T08:28:09;26.80;82.90
16412;DHT22;8315;52.104;6.304;2022-08-25T08:30:36;26.90;81.60
16412;DHT22;8315;52.104;6.304;2022-08-25T08:33:02;27.00;80.60
16412;DHT22;8315;52.104;6.304;2022-08-25T08:35:30;27.00;80.00
16412;DHT22;8315;52.104;6.304;2022-08-25T08:37:57;27.20;80.60
16412;DHT22;8315;52.104;6.304;2022-08-25T08:40:24;27.30;80.70
16412;DHT22;8315;52.104;6.304;2022-08-25T08:42:54;27.40;80.60
16412;DHT22;8315;52.104;6.304;2022-08-25T08:45:31;27.60;79.50
16412;DHT22;8315;52.104;6.304;2022-08-25T08:51:06;27.70;79.10
16412;DHT22;8315;52.104;6.304;2022-08-25T08:53:42;27.70;78.70
16412;DHT22;8315;52.104;6.304;2022-08-25T08:56:12;27.80;78.10
16412;DHT22;8315;52.104;6.304;2022-08-25T08:58:42;27.90;77.80
16412;DHT22;8315;52.104;6.304;2022-08-25T09:01:12;27.90;77.90
16412;DHT22;8315;52.104;6.304;2022-08-25T09:03:43;28.00;77.40
16412;DHT22;8315;52.104;6.304;2022-08-25T09:06:16;28.10;77.20
16412;DHT22;8315;52.104;6.304;2022-08-25T09:08:45;28.30;77.10
16412;DHT22;8315;52.104;6.304;2022-08-25T09:11:15;28.30;76.30
16412;DHT22;8315;52.104;6.304;2022-08-25T09:14:03;28.40;76.40
16412;DHT22;8315;52.104;6.304;2022-08-25T09:16:38;28.50;76.60
16412;DHT22;8315;52.104;6.304;2022-08-25T09:19:32;28.50;75.90
16412;DHT22;8315;52.104;6.304;2022-08-25T09:22:07;28.50;75.70
16412;DHT22;8315;52.104;6.304;2022-08-25T09:24:44;28.70;75.10
16412;DHT22;8315;52.104;6.304;2022-08-25T09:27:17;28.80;75.40
16412;DHT22;8315;52.104;6.304;2022-08-25T09:29:53;28.90;74.30
16412;DHT22;8315;52.104;6.304;2022-08-25T09:32:27;28.80;73.80
16412;DHT22;8315;52.104;6.304;2022-08-25T09:34:58;28.90;75.30
16412;DHT22;8315;52.104;6.304;2022-08-25T09:37:25;29.00;74.50
16412;DHT22;8315;52.104;6.304;2022-08-25T09:39:52;29.10;75.00
16412;DHT22;8315;52.104;6.304;2022-08-25T09:42:19;29.20;74.60
16412;DHT22;8315;52.104;6.304;2022-08-25T09:44:46;29.10;73.60
16412;DHT22;8315;52.104;6.304;2022-08-25T09:47:18;29.10;73.80
16412;DHT22;8315;52.104;6.304;2022-08-25T09:49:49;29.20;73.90
16412;DHT22;8315;52.104;6.304;2022-08-25T09:52:23;29.30;73.40
16412;DHT22;8315;52.104;6.304;2022-08-25T09:55:00;29.30;72.60
16412;DHT22;8315;52.104;6.304;2022-08-25T09:57:52;29.40;72.20
16412;DHT22;8315;52.104;6.304;2022-08-25T10:00:22;29.40;71.30
16412;DHT22;8315;52.104;6.304;2022-08-25T10:03:03;29.50;69.70
16412;DHT22;8315;52.104;6.304;2022-08-25T10:05:34;29.50;70.40
16412;DHT22;8315;52.104;6.304;2022-08-25T10:08:09;29.50;70.00
16412;DHT22;8315;52.104;6.304;2022-08-25T10:10:39;29.50;69.50
16412;DHT22;8315;52.104;6.304;2022-08-25T10:13:12;29.60;68.80
16412;DHT22;8315;52.104;6.304;2022-08-25T10:15:39;29.70;68.40
16412;DHT22;8315;52.104;6.304;2022-08-25T10:18:18;29.70;66.30
16412;DHT22;8315;52.104;6.304;2022-08-25T10:21:03;29.80;65.80
16412;DHT22;8315;52.104;6.304;2022-08-25T10:23:36;29.80;66.40
16412;DHT22;8315;52.104;6.304;2022-08-25T10:26:12;29.90;66.00
16412;DHT22;8315;52.104;6.304;2022-08-25T10:28:46;29.90;66.50
16412;DHT22;8315;52.104;6.304;2022-08-25T10:31:21;30.00;66.30
16412;DHT22;8315;52.104;6.304;2022-08-25T10:33:57;30.10;65.70
16412;DHT22;8315;52.104;6.304;2022-08-25T10:36:31;30.10;65.10
16412;DHT22;8315;52.104;6.304;2022-08-25T10:39:03;30.10;65.30
16412;DHT22;8315;52.104;6.304;2022-08-25T10:41:41;30.20;66.30
16412;DHT22;8315;52.104;6.304;2022-08-25T10:44:17;30.30;64.40
16412;DHT22;8315;52.104;6.304;2022-08-25T10:47:15;30.40;65.70
16412;DHT22;8315;52.104;6.304;2022-08-25T10:49:53;30.50;65.70
16412;DHT22;8315;52.104;6.304;2022-08-25T10:52:25;30.50;63.30
16412;DHT22;8315;52.104;6.304;2022-08-25T10:54:56;30.50;64.70
16412;DHT22;8315;52.104;6.304;2022-08-25T10:57:28;30.40;63.60
16412;DHT22;8315;52.104;6.304;2022-08-25T11:00:04;30.50;63.00
16412;DHT22;8315;52.104;6.304;2022-08-25T11:05:39;30.50;64.70
16412;DHT22;8315;52.104;6.304;2022-08-25T11:08:09;30.60;64.70
16412;DHT22;8315;52.104;6.304;2022-08-25T11:10:41;30.70;64.70
16412;DHT22;8315;52.104;6.304;2022-08-25T11:13:12;30.80;63.50
16412;DHT22;8315;52.104;6.304;2022-08-25T11:15:44;30.70;61.80
16412;DHT22;8315;52.104;6.304;2022-08-25T11:18:17;30.70;63.40
16412;DHT22;8315;52.104;6.304;2022-08-25T11:20:45;30.80;63.00
16412;DHT22;8315;52.104;6.304;2022-08-25T11:23:18;30.80;63.20
16412;DHT22;8315;52.104;6.304;2022-08-25T11:25:48;30.80;62.40
16412;DHT22;8315;52.104;6.304;2022-08-25T11:28:20;30.80;61.80
16412;DHT22;8315;52.104;6.304;2022-08-25T11:30:49;30.80;60.90
16412;DHT22;8315;52.104;6.304;2022-08-25T11:33:17;30.80;61.40
16412;DHT22;8315;52.104;6.304;2022-08-25T11:35:46;30.90;62.10
16412;DHT22;8315;52.104;6.304;2022-08-25T11:38:20;30.90;62.20
16412;DHT22;8315;52.104;6.304;2022-08-25T11:40:59;30.90;62.30
16412;DHT22;8315;52.104;6.304;2022-08-25T11:43:35;30.90;61.80
16412;DHT22;8315;52.104;6.304;2022-08-25T11:46:21;30.90;62.70
16412;DHT22;8315;52.104;6.304;2022-08-25T11:48:56;31.00;63.60
16412;DHT22;8315;52.104;6.304;2022-08-25T11:51:28;30.90;63.40
16412;DHT22;8315;52.104;6.304;2022-08-25T11:54:06;31.10;63.80
16412;DHT22;8315;52.104;6.304;2022-08-25T11:56:41;31.20;63.10
16412;DHT22;8315;52.104;6.304;2022-08-25T11:59:08;31.20;62.20
16412;DHT22;8315;52.104;6.304;2022-08-25T12:04:42;31.30;62.20
16412;DHT22;8315;52.104;6.304;2022-08-25T12:13:03;31.40;61.50
16412;DHT22;8315;52.104;6.304;2022-08-25T12:15:33;31.40;60.80
16412;DHT22;8315;52.104;6.304;2022-08-25T12:21:14;31.50;61.70
16412;DHT22;8315;52.104;6.304;2022-08-25T12:23:42;31.60;61.40
16412;DHT22;8315;52.104;6.304;2022-08-25T12:26:15;31.70;63.20
16412;DHT22;8315;52.104;6.304;2022-08-25T12:28:50;31.70;60.60
16412;DHT22;8315;52.104;6.304;2022-08-25T12:34:15;31.60;60.30
16412;DHT22;8315;52.104;6.304;2022-08-25T12:36:54;31.70;60.20
16412;DHT22;8315;52.104;6.304;2022-08-25T12:39:27;31.70;59.50
16412;DHT22;8315;52.104;6.304;2022-08-25T12:41:57;31.60;59.40
16412;DHT22;8315;52.104;6.304;2022-08-25T12:44:33;31.70;59.20
16412;DHT22;8315;52.104;6.304;2022-08-25T12:47:10;31.70;60.00
16412;DHT22;8315;52.104;6.304;2022-08-25T12:49:39;31.60;60.20
16412;DHT22;8315;52.104;6.304;2022-08-25T12:52:09;31.60;60.80
16412;DHT22;8315;52.104;6.304;2022-08-25T12:54:41;31.60;60.20
16412;DHT22;8315;52.104;6.304;2022-08-25T12:57:21;31.80;60.40
16412;DHT22;8315;52.104;6.304;2022-08-25T12:59:53;31.90;60.50
16412;DHT22;8315;52.104;6.304;2022-08-25T13:02:39;32.10;59.60
16412;DHT22;8315;52.104;6.304;2022-08-25T13:05:21;32.20;59.60
16412;DHT22;8315;52.104;6.304;2022-08-25T13:08:08;32.30;59.20
16412;DHT22;8315;52.104;6.304;2022-08-25T13:10:47;32.20;58.60
16412;DHT22;8315;52.104;6.304;2022-08-25T13:13:21;32.20;58.40
16412;DHT22;8315;52.104;6.304;2022-08-25T13:15:58;32.30;59.60
16412;DHT22;8315;52.104;6.304;2022-08-25T13:18:26;32.30;59.00
16412;DHT22;8315;52.104;6.304;2022-08-25T13:21:00;32.30;59.30
16412;DHT22;8315;52.104;6.304;2022-08-25T13:23:29;32.20;58.80
16412;DHT22;8315;52.104;6.304;2022-08-25T13:25:56;32.10;58.00
16412;DHT22;8315;52.104;6.304;2022-08-25T13:28:26;32.10;58.40
16412;DHT22;8315;52.104;6.304;2022-08-25T13:30:56;32.10;58.20
16412;DHT22;8315;52.104;6.304;2022-08-25T13:33:24;32.20;58.70
16412;DHT22;8315;52.104;6.304;2022-08-25T13:35:52;32.40;59.90
16412;DHT22;8315;52.104;6.304;2022-08-25T13:38:40;32.50;58.70
16412;DHT22;8315;52.104;6.304;2022-08-25T13:41:07;32.40;58.10
16412;DHT22;8315;52.104;6.304;2022-08-25T13:43:37;32.30;58.50
16412;DHT22;8315;52.104;6.304;2022-08-25T13:46:04;32.50;59.70
16412;DHT22;8315;52.104;6.304;2022-08-25T13:48:32;32.50;57.70
16412;DHT22;8315;52.104;6.304;2022-08-25T13:51:08;32.40;57.70
16412;DHT22;8315;52.104;6.304;2022-08-25T13:53:46;32.60;59.10
16412;DHT22;8315;52.104;6.304;2022-08-25T13:56:31;32.80;56.90
16412;DHT22;8315;52.104;6.304;2022-08-25T13:59:01;32.70;56.50
16412;DHT22;8315;52.104;6.304;2022-08-25T14:01:29;32.50;57.10
16412;DHT22;8315;52.104;6.304;2022-08-25T14:06:47;33.00;57.80
16412;DHT22;8315;52.104;6.304;2022-08-25T14:09:15;33.20;55.60
16412;DHT22;8315;52.104;6.304;2022-08-25T14:11:43;33.10;56.30
16412;DHT22;8315;52.104;6.304;2022-08-25T14:14:28;32.90;55.50
16412;DHT22;8315;52.104;6.304;2022-08-25T14:17:00;32.90;55.50
16412;DHT22;8315;52.104;6.304;2022-08-25T14:19:29;33.20;55.50
16412;DHT22;8315;52.104;6.304;2022-08-25T14:21:56;33.40;55.90
16412;DHT22;8315;52.104;6.304;2022-08-25T14:24:27;33.60;54.90
16412;DHT22;8315;52.104;6.304;2022-08-25T14:26:57;33.80;56.10
16412;DHT22;8315;52.104;6.304;2022-08-25T14:29:25;33.90;54.60
16412;DHT22;8315;52.104;6.304;2022-08-25T14:31:52;33.90;54.40
16412;DHT22;8315;52.104;6.304;2022-08-25T14:34:21;33.60;55.50
16412;DHT22;8315;52.104;6.304;2022-08-25T14:36:49;33.60;55.30
16412;DHT22;8315;52.104;6.304;2022-08-25T14:39:17;34.10;54.30
16412;DHT22;8315;52.104;6.304;2022-08-25T14:41:44;34.40;53.50
16412;DHT22;8315;52.104;6.304;2022-08-25T14:44:11;34.60;53.40
16412;DHT22;8315;52.104;6.304;2022-08-25T14:46:41;34.50;53.60
16412;DHT22;8315;52.104;6.304;2022-08-25T14:49:11;34.50;53.20
16412;DHT22;8315;52.104;6.304;2022-08-25T14:51:39;34.50;53.20
16412;DHT22;8315;52.104;6.304;2022-08-25T14:54:09;34.30;53.60
16412;DHT22;8315;52.104;6.304;2022-08-25T14:56:39;34.30;54.30
16412;DHT22;8315;52.104;6.304;2022-08-25T14:59:07;34.40;54.30
16412;DHT22;8315;52.104;6.304;2022-08-25T15:01:34;34.70;54.30
16412;DHT22;8315;52.104;6.304;2022-08-25T15:04:03;34.50;53.60
16412;DHT22;8315;52.104;6.304;2022-08-25T15:06:32;34.30;53.80
16412;DHT22;8315;52.104;6.304;2022-08-25T15:09:00;34.20;54.40
16412;DHT22;8315;52.104;6.304;2022-08-25T15:11:32;34.50;54.00
16412;DHT22;8315;52.104;6.304;2022-08-25T15:14:00;34.70;53.40
16412;DHT22;8315;52.104;6.304;2022-08-25T15:16:29;34.70;53.70
16412;DHT22;8315;52.104;6.304;2022-08-25T15:18:57;34.80;53.80
16412;DHT22;8315;52.104;6.304;2022-08-25T15:21:26;35.00;54.80
16412;DHT22;8315;52.104;6.304;2022-08-25T15:23:53;35.20;54.90
16412;DHT22;8315;52.104;6.304;2022-08-25T15:26:19;35.20;53.40
16412;DHT22;8315;52.104;6.304;2022-08-25T15:28:47;34.90;54.10
16412;DHT22;8315;52.104;6.304;2022-08-25T15:31:15;34.40;54.20
16412;DHT22;8315;52.104;6.304;2022-08-25T15:33:42;34.30;54.60
16412;DHT22;8315;52.104;6.304;2022-08-25T15:36:10;34.30;54.40
16412;DHT22;8315;52.104;6.304;2022-08-25T15:38:41;34.70;54.00
16412;DHT22;8315;52.104;6.304;2022-08-25T15:41:09;34.70;54.40
16412;DHT22;8315;52.104;6.304;2022-08-25T15:43:37;34.90;54.50
16412;DHT22;8315;52.104;6.304;2022-08-25T15:46:04;34.60;54.60
16412;DHT22;8315;52.104;6.304;2022-08-25T15:48:32;34.80;54.00
16412;DHT22;8315;52.104;6.304;2022-08-25T15:50:58;34.60;54.10
16412;DHT22;8315;52.104;6.304;2022-08-25T15:53:26;34.60;54.50
16412;DHT22;8315;52.104;6.304;2022-08-25T15:55:55;34.90;54.70
16412;DHT22;8315;52.104;6.304;2022-08-25T15:58:22;35.30;55.40
16412;DHT22;8315;52.104;6.304;2022-08-25T16:00:49;35.60;52.80
16412;DHT22;8315;52.104;6.304;2022-08-25T16:03:16;36.00;52.80
16412;DHT22;8315;52.104;6.304;2022-08-25T16:05:43;35.80;52.30
16412;DHT22;8315;52.104;6.304;2022-08-25T16:08:10;35.70;52.80
16412;DHT22;8315;52.104;6.304;2022-08-25T16:10:38;35.80;52.30
16412;DHT22;8315;52.104;6.304;2022-08-25T16:13:08;35.30;52.70
16412;DHT22;8315;52.104;6.304;2022-08-25T16:15:37;35.40;52.70
16412;DHT22;8315;52.104;6.304;2022-08-25T16:18:04;35.50;53.10
16412;DHT22;8315;52.104;6.304;2022-08-25T16:20:32;35.60;53.40
16412;DHT22;8315;52.104;6.304;2022-08-25T16:23:00;35.80;53.60
16412;DHT22;8315;52.104;6.304;2022-08-25T16:25:27;35.70;51.90